createdAt,value
2022-12-25T00:00:49.352Z,100.00
2022-12-25T00:03:56.992Z,100.00
2022-12-25T00:07:01.509Z,100.00
2022-12-25T00:10:04.566Z,100.00
2022-12-25T00:13:06.914Z,100.00
2022-12-25T00:16:18.073Z,100.00
2022-12-25T00:19:21.678Z,100.00
2022-12-25T00:22:24.354Z,100.00
2022-12-25T00:25:26.667Z,100.00
2022-12-25T00:28:29.433Z,100.00
2022-12-25T00:31:31.835Z,100.00
2022-12-25T00:34:34.726Z,100.00
2022-12-25T00:37:37.486Z,100.00
2022-12-25T00:40:44.176Z,100.00
2022-12-25T00:43:46.629Z,100.00
2022-12-25T00:46:49.358Z,100.00
2022-12-25T00:49:52.109Z,100.00
2022-12-25T00:52:54.802Z,100.00
2022-12-25T00:55:58.984Z,100.00
2022-12-25T00:59:01.622Z,100.00
2022-12-25T01:02:27.267Z,100.00
2022-12-25T01:05:30.411Z,100.00
2022-12-25T01:08:36.865Z,100.00
2022-12-25T01:11:39.557Z,100.00
2022-12-25T01:14:41.846Z,100.00
2022-12-25T01:17:44.655Z,100.00
2022-12-25T01:20:47.124Z,100.00
2022-12-25T01:23:50.722Z,100.00
2022-12-25T01:26:53.738Z,100.00
2022-12-25T01:29:56.565Z,100.00
2022-12-25T01:32:58.964Z,100.00
2022-12-25T01:36:01.592Z,100.00
2022-12-25T01:39:04.253Z,100.00
2022-12-25T01:42:06.976Z,100.00
2022-12-25T01:45:32.070Z,100.00
2022-12-25T01:48:37.098Z,100.00
2022-12-25T01:51:42.419Z,100.00
2022-12-25T01:54:57.652Z,100.00
2022-12-25T01:58:00.007Z,100.00
2022-12-25T02:01:03.075Z,100.00
2022-12-25T02:04:09.239Z,100.00
2022-12-25T02:07:14.014Z,100.00
2022-12-25T02:10:17.110Z,100.00
2022-12-25T02:13:20.214Z,100.00
2022-12-25T02:16:26.258Z,100.00
2022-12-25T02:19:42.899Z,100.00
2022-12-25T02:22:57.849Z,100.00
2022-12-25T02:26:06.140Z,100.00
2022-12-25T02:29:24.963Z,100.00
2022-12-25T02:32:33.130Z,100.00
2022-12-25T02:35:36.104Z,100.00
2022-12-25T02:39:00.574Z,100.00
2022-12-25T02:42:05.991Z,100.00
2022-12-25T02:45:27.612Z,100.00
2022-12-25T02:48:54.389Z,100.00
2022-12-25T02:52:29.071Z,100.00
2022-12-25T02:55:54.456Z,100.00
2022-12-25T02:59:17.214Z,100.00
2022-12-25T03:02:40.195Z,100.00
2022-12-25T03:06:01.992Z,100.00
2022-12-25T03:09:23.869Z,100.00
2022-12-25T03:12:34.369Z,100.00
2022-12-25T03:15:55.838Z,100.00
2022-12-25T03:18:58.755Z,100.00
2022-12-25T03:22:20.175Z,100.00
2022-12-25T03:25:40.902Z,100.00
2022-12-25T03:28:43.834Z,100.00
2022-12-25T03:31:53.050Z,100.00
2022-12-25T03:35:17.746Z,100.00
2022-12-25T03:38:47.253Z,100.00
2022-12-25T03:42:17.408Z,100.00
2022-12-25T03:45:43.394Z,100.00
2022-12-25T03:49:10.081Z,100.00
2022-12-25T03:52:34.281Z,100.00
2022-12-25T03:55:55.619Z,100.00
2022-12-25T03:59:23.125Z,100.00
2022-12-25T04:02:45.001Z,100.00
2022-12-25T04:06:06.238Z,100.00
2022-12-25T04:09:27.045Z,100.00
2022-12-25T04:12:48.413Z,100.00
2022-12-25T04:16:12.521Z,100.00
2022-12-25T04:19:33.691Z,100.00
2022-12-25T04:22:54.911Z,100.00
2022-12-25T04:26:16.904Z,100.00
2022-12-25T04:29:37.970Z,100.00
2022-12-25T04:32:59.442Z,100.00
2022-12-25T04:36:13.749Z,100.00
2022-12-25T04:39:16.727Z,100.00
2022-12-25T04:42:19.296Z,100.00
2022-12-25T04:45:22.488Z,100.00
2022-12-25T04:48:25.745Z,100.00
2022-12-25T04:51:28.764Z,100.00
2022-12-25T04:54:31.183Z,100.00
2022-12-25T04:57:33.948Z,100.00
2022-12-25T05:00:36.611Z,100.00
2022-12-25T05:03:39.809Z,100.00
2022-12-25T05:06:42.369Z,100.00
2022-12-25T05:09:44.898Z,100.00
2022-12-25T05:12:47.356Z,100.00
2022-12-25T05:15:49.963Z,100.00
2022-12-25T05:18:52.793Z,100.00
2022-12-25T05:21:57.669Z,100.00
2022-12-25T05:24:59.968Z,100.00
2022-12-25T05:28:02.557Z,100.00
2022-12-25T05:31:04.923Z,100.00
2022-12-25T05:34:07.578Z,100.00
2022-12-25T05:37:09.989Z,100.00
2022-12-25T05:40:12.738Z,100.00
2022-12-25T05:43:15.104Z,100.00
2022-12-25T05:46:18.029Z,100.00
2022-12-25T05:49:20.546Z,100.00
2022-12-25T05:52:23.471Z,100.00
2022-12-25T05:55:25.808Z,100.00
2022-12-25T05:58:29.106Z,100.00
2022-12-25T06:01:31.711Z,100.00
2022-12-25T06:04:34.429Z,100.00
2022-12-25T06:07:36.783Z,100.00
2022-12-25T06:10:39.356Z,100.00
2022-12-25T06:13:41.806Z,100.00
2022-12-25T06:16:44.662Z,100.00
2022-12-25T06:19:47.109Z,100.00
2022-12-25T06:22:49.873Z,100.00
2022-12-25T06:25:52.434Z,100.00
2022-12-25T06:28:55.050Z,100.00
2022-12-25T06:31:57.592Z,100.00
2022-12-25T06:35:00.328Z,100.00
2022-12-25T06:38:02.655Z,100.00
2022-12-25T06:41:13.814Z,100.00
2022-12-25T06:44:16.183Z,100.00
2022-12-25T06:47:18.789Z,100.00
2022-12-25T06:50:21.211Z,100.00
2022-12-25T06:53:23.825Z,100.00
2022-12-25T06:56:27.647Z,100.00
2022-12-25T06:59:30.587Z,100.00
2022-12-25T07:02:33.566Z,100.00
2022-12-25T07:05:36.304Z,100.00
2022-12-25T07:08:38.891Z,100.00
2022-12-25T07:11:42.390Z,100.00
2022-12-25T07:14:45.705Z,100.00
2022-12-25T07:17:48.388Z,100.00
2022-12-25T07:20:50.832Z,100.00
2022-12-25T07:23:53.595Z,100.00
2022-12-25T07:26:55.925Z,100.00
2022-12-25T07:29:58.598Z,100.00
2022-12-25T07:33:00.984Z,100.00
2022-12-25T07:36:05.355Z,100.00
2022-12-25T07:39:09.916Z,100.00
2022-12-25T07:42:12.632Z,100.00
2022-12-25T07:45:15.067Z,100.00
2022-12-25T07:48:17.806Z,100.00
2022-12-25T07:51:20.875Z,100.00
2022-12-25T07:54:23.773Z,100.00
2022-12-25T07:57:26.176Z,100.00
2022-12-25T08:00:32.721Z,100.00
2022-12-25T08:03:36.052Z,100.00
2022-12-25T08:06:38.739Z,100.00
2022-12-25T08:09:41.608Z,100.00
2022-12-25T08:12:43.901Z,100.00
2022-12-25T08:15:46.548Z,100.00
2022-12-25T08:18:48.992Z,100.00
2022-12-25T08:21:51.689Z,100.00
2022-12-25T08:24:54.017Z,100.00
2022-12-25T08:27:56.676Z,100.00
2022-12-25T08:30:59.066Z,100.00
2022-12-25T08:34:02.527Z,100.00
2022-12-25T08:37:04.987Z,100.00
2022-12-25T08:40:08.060Z,100.00
2022-12-25T08:43:10.483Z,100.00
2022-12-25T08:46:13.292Z,100.00
2022-12-25T08:49:16.486Z,100.00
2022-12-25T08:52:19.096Z,100.00
2022-12-25T08:55:21.704Z,100.00
2022-12-25T08:58:24.609Z,100.00
2022-12-25T09:01:27.036Z,100.00
2022-12-25T09:04:30.087Z,100.00
2022-12-25T09:07:32.305Z,100.00
2022-12-25T09:10:36.504Z,100.00
2022-12-25T09:13:39.235Z,100.00
2022-12-25T09:16:41.939Z,100.00
2022-12-25T09:19:44.329Z,100.00
2022-12-25T09:22:46.951Z,100.00
2022-12-25T09:25:49.413Z,100.00
2022-12-25T09:28:52.796Z,100.00
2022-12-25T09:31:55.428Z,100.00
2022-12-25T09:34:58.191Z,100.00
2022-12-25T09:38:00.540Z,100.00
2022-12-25T09:41:07.192Z,100.00
2022-12-25T09:44:20.925Z,100.00
2022-12-25T09:47:25.502Z,100.00
2022-12-25T09:50:27.849Z,100.00
2022-12-25T09:53:40.713Z,100.00
2022-12-25T09:56:43.105Z,100.00
2022-12-25T09:59:47.495Z,100.00
2022-12-25T10:02:50.023Z,100.00
2022-12-25T10:05:52.753Z,100.00
2022-12-25T10:09:11.217Z,100.00
2022-12-25T10:12:34.819Z,98.38
2022-12-25T10:15:40.461Z,99.76
2022-12-25T10:19:21.725Z,97.57
2022-12-25T10:22:30.274Z,97.21
2022-12-25T10:25:33.001Z,99.81
2022-12-25T10:28:39.945Z,100.00
2022-12-25T10:31:45.341Z,100.00
2022-12-25T10:34:48.449Z,100.00
2022-12-25T10:38:01.635Z,100.00
2022-12-25T10:41:04.017Z,100.00
2022-12-25T10:44:14.087Z,100.00
2022-12-25T10:47:23.436Z,100.00
2022-12-25T10:50:26.260Z,100.00
2022-12-25T10:53:29.349Z,100.00
2022-12-25T10:56:31.971Z,100.00
2022-12-25T10:59:35.473Z,100.00
2022-12-25T11:02:40.633Z,100.00
2022-12-25T11:05:43.344Z,100.00
2022-12-25T11:08:51.116Z,100.00
2022-12-25T11:11:53.564Z,100.00
2022-12-25T11:14:57.734Z,100.00
2022-12-25T11:18:00.222Z,100.00
2022-12-25T11:21:05.113Z,100.00
2022-12-25T11:24:18.038Z,99.81
2022-12-25T11:27:23.426Z,100.00
2022-12-25T11:30:26.138Z,99.96
2022-12-25T11:33:42.116Z,100.00
2022-12-25T11:36:46.206Z,100.00
2022-12-25T11:39:49.110Z,97.87
2022-12-25T11:42:52.990Z,98.10
2022-12-25T11:45:59.721Z,96.36
2022-12-25T11:49:05.604Z,96.64
2022-12-25T11:52:10.854Z,97.96
2022-12-25T11:55:29.808Z,96.64
2022-12-25T11:58:51.075Z,96.65
2022-12-25T12:02:00.318Z,95.27
2022-12-25T12:05:23.219Z,95.00
2022-12-25T12:08:25.622Z,96.24
2022-12-25T12:11:33.017Z,94.84
2022-12-25T12:14:43.109Z,94.52
2022-12-25T12:17:45.766Z,93.23
2022-12-25T12:21:06.671Z,93.21
2022-12-25T12:24:20.910Z,93.58
2022-12-25T12:27:39.783Z,93.62
2022-12-25T12:30:42.562Z,91.39
2022-12-25T12:33:53.505Z,91.27
2022-12-25T12:37:05.084Z,91.39
2022-12-25T12:40:21.254Z,91.70
2022-12-25T12:43:29.911Z,92.48
2022-12-25T12:46:35.539Z,92.80
2022-12-25T12:49:38.277Z,91.01
2022-12-25T12:52:42.048Z,89.42
2022-12-25T12:55:44.607Z,90.30
2022-12-25T12:58:50.125Z,90.75
2022-12-25T13:01:58.675Z,89.83
2022-12-25T13:05:03.822Z,90.97
2022-12-25T13:08:25.441Z,90.88
2022-12-25T13:11:29.581Z,92.56
2022-12-25T13:14:32.688Z,94.02
2022-12-25T13:17:35.428Z,93.87
2022-12-25T13:20:47.367Z,91.75
2022-12-25T13:23:55.769Z,92.59
2022-12-25T13:26:58.661Z,92.48
2022-12-25T13:30:11.203Z,92.20
2022-12-25T13:33:17.249Z,91.72
2022-12-25T13:36:19.585Z,91.57
2022-12-25T13:39:25.025Z,90.71
2022-12-25T13:42:30.205Z,91.99
2022-12-25T13:45:34.951Z,92.53
2022-12-25T13:48:37.313Z,93.02
2022-12-25T13:51:39.972Z,93.45
2022-12-25T13:54:56.413Z,93.54
2022-12-25T13:58:00.398Z,93.57
2022-12-25T14:01:03.676Z,94.22
2022-12-25T14:04:13.631Z,95.28
2022-12-25T14:07:18.805Z,95.43
2022-12-25T14:10:25.710Z,95.63
2022-12-25T14:13:31.829Z,96.81
2022-12-25T14:16:34.929Z,97.17
2022-12-25T14:19:37.536Z,98.94
2022-12-25T14:22:41.625Z,100.00
2022-12-25T14:25:45.661Z,100.00
2022-12-25T14:28:57.699Z,100.00
2022-12-25T14:32:03.181Z,100.00
2022-12-25T14:35:06.660Z,100.00
2022-12-25T14:38:24.208Z,100.00
2022-12-25T14:41:39.324Z,100.00
2022-12-25T14:44:41.779Z,100.00
2022-12-25T14:47:51.959Z,100.00
2022-12-25T14:51:00.207Z,100.00
2022-12-25T14:54:04.129Z,100.00
2022-12-25T14:57:06.411Z,100.00
2022-12-25T15:00:09.456Z,100.00
2022-12-25T15:03:21.124Z,100.00
2022-12-25T15:06:24.908Z,100.00
2022-12-25T15:09:28.069Z,100.00
2022-12-25T15:12:30.748Z,100.00
2022-12-25T15:15:33.825Z,100.00
2022-12-25T15:18:38.200Z,100.00
2022-12-25T15:21:40.528Z,100.00
2022-12-25T15:24:43.181Z,100.00
2022-12-25T15:27:45.571Z,100.00
2022-12-25T15:30:49.868Z,100.00
2022-12-25T15:33:53.619Z,100.00
2022-12-25T15:36:56.598Z,100.00
2022-12-25T15:39:59.604Z,100.00
2022-12-25T15:43:11.201Z,100.00
2022-12-25T15:46:24.944Z,100.00
2022-12-25T15:49:27.542Z,100.00
2022-12-25T15:52:31.685Z,100.00
2022-12-25T15:55:34.645Z,100.00
2022-12-25T15:58:37.092Z,100.00
2022-12-25T16:01:43.091Z,100.00
2022-12-25T16:04:45.863Z,100.00
2022-12-25T16:07:48.455Z,100.00
2022-12-25T16:10:51.054Z,100.00
2022-12-25T16:13:53.983Z,100.00
2022-12-25T16:16:56.570Z,100.00
2022-12-25T16:19:59.139Z,100.00
2022-12-25T16:23:01.914Z,100.00
2022-12-25T16:26:04.325Z,100.00
2022-12-25T16:29:07.684Z,100.00
2022-12-25T16:32:14.114Z,100.00
2022-12-25T16:35:17.801Z,100.00
2022-12-25T16:38:20.213Z,100.00
2022-12-25T16:41:22.958Z,100.00
2022-12-25T16:44:25.404Z,100.00
2022-12-25T16:47:28.057Z,100.00
2022-12-25T16:50:30.448Z,100.00
2022-12-25T16:53:33.881Z,100.00
2022-12-25T16:56:36.743Z,100.00
2022-12-25T16:59:39.394Z,100.00
2022-12-25T17:02:41.990Z,100.00
2022-12-25T17:05:44.849Z,100.00
2022-12-25T17:08:47.625Z,100.00
2022-12-25T17:11:50.361Z,100.00
2022-12-25T17:14:52.736Z,100.00
2022-12-25T17:17:55.357Z,100.00
2022-12-25T17:20:57.813Z,100.00
2022-12-25T17:24:03.654Z,100.00
2022-12-25T17:27:08.671Z,100.00
2022-12-25T17:30:11.526Z,100.00
2022-12-25T17:33:13.894Z,100.00
2022-12-25T17:36:17.767Z,100.00
2022-12-25T17:39:20.103Z,100.00
2022-12-25T17:42:22.676Z,100.00
2022-12-25T17:45:25.091Z,100.00
2022-12-25T17:48:27.830Z,100.00
2022-12-25T17:51:30.809Z,100.00
2022-12-25T17:54:33.657Z,100.00
2022-12-25T17:57:36.033Z,100.00
2022-12-25T18:00:38.793Z,100.00
2022-12-25T18:03:42.021Z,100.00
2022-12-25T18:06:44.393Z,100.00
2022-12-25T18:09:46.972Z,100.00
2022-12-25T18:12:49.593Z,100.00
2022-12-25T18:15:52.633Z,100.00
2022-12-25T18:18:55.124Z,100.00
2022-12-25T18:21:57.882Z,100.00
2022-12-25T18:25:00.205Z,100.00
2022-12-25T18:28:03.069Z,100.00
2022-12-25T18:31:09.518Z,100.00
2022-12-25T18:34:12.296Z,100.00
2022-12-25T18:37:14.705Z,100.00
2022-12-25T18:40:17.267Z,100.00
2022-12-25T18:43:20.786Z,100.00
2022-12-25T18:46:43.380Z,100.00
2022-12-25T18:49:45.761Z,100.00
2022-12-25T18:52:51.619Z,100.00
2022-12-25T18:55:56.505Z,100.00
2022-12-25T18:58:59.795Z,100.00
2022-12-25T19:02:02.362Z,100.00
2022-12-25T19:05:05.729Z,100.00
2022-12-25T19:08:08.229Z,100.00
2022-12-25T19:11:10.783Z,100.00
2022-12-25T19:14:13.217Z,100.00
2022-12-25T19:17:16.369Z,100.00
2022-12-25T19:20:18.728Z,100.00
2022-12-25T19:23:21.498Z,100.00
2022-12-25T19:26:23.894Z,100.00
2022-12-25T19:29:26.589Z,100.00
2022-12-25T19:32:29.432Z,100.00
2022-12-25T19:35:32.139Z,100.00
2022-12-25T19:38:35.038Z,100.00
2022-12-25T19:41:38.057Z,100.00
2022-12-25T19:44:40.441Z,100.00
2022-12-25T19:47:44.317Z,100.00
2022-12-25T19:50:46.834Z,100.00
2022-12-25T19:53:49.646Z,100.00
2022-12-25T19:56:52.014Z,100.00
2022-12-25T19:59:54.753Z,100.00
2022-12-25T20:02:57.520Z,100.00
2022-12-25T20:06:00.869Z,100.00
2022-12-25T20:09:08.250Z,100.00
2022-12-25T20:12:11.282Z,100.00
2022-12-25T20:15:13.638Z,100.00
2022-12-25T20:18:16.955Z,100.00
2022-12-25T20:21:20.476Z,100.00
2022-12-25T20:24:24.661Z,100.00
2022-12-25T20:27:27.170Z,100.00
2022-12-25T20:30:29.899Z,100.00
2022-12-25T20:33:33.112Z,100.00
2022-12-25T20:36:37.764Z,100.00
2022-12-25T20:39:40.572Z,100.00
2022-12-25T20:42:43.435Z,100.00
2022-12-25T20:45:45.820Z,100.00
2022-12-25T20:48:48.529Z,100.00
2022-12-25T20:51:50.796Z,100.00
2022-12-25T20:54:53.383Z,100.00
2022-12-25T20:57:55.734Z,100.00
2022-12-25T21:00:58.475Z,100.00
2022-12-25T21:04:01.002Z,100.00
2022-12-25T21:07:03.809Z,100.00
2022-12-25T21:10:06.720Z,100.00
2022-12-25T21:13:09.413Z,100.00
2022-12-25T21:16:14.176Z,100.00
2022-12-25T21:19:16.762Z,100.00
2022-12-25T21:22:19.119Z,100.00
2022-12-25T21:25:21.916Z,100.00
2022-12-25T21:28:27.275Z,100.00
2022-12-25T21:31:30.993Z,100.00
2022-12-25T21:34:33.543Z,100.00
2022-12-25T21:37:36.425Z,100.00
2022-12-25T21:40:41.287Z,100.00
2022-12-25T21:43:43.932Z,100.00
2022-12-25T21:46:46.385Z,100.00
2022-12-25T21:50:07.804Z,100.00
2022-12-25T21:53:14.860Z,100.00
2022-12-25T21:56:17.646Z,100.00
2022-12-25T21:59:20.793Z,100.00
2022-12-25T22:02:23.625Z,100.00
2022-12-25T22:05:44.882Z,100.00
2022-12-25T22:08:47.280Z,100.00
2022-12-25T22:12:08.798Z,100.00
2022-12-25T22:15:11.461Z,100.00
2022-12-25T22:18:32.917Z,100.00
2022-12-25T22:21:35.256Z,100.00
2022-12-25T22:24:39.379Z,100.00
2022-12-25T22:27:42.563Z,100.00
2022-12-25T22:30:45.643Z,100.00
2022-12-25T22:33:48.009Z,100.00
2022-12-25T22:36:50.648Z,100.00
2022-12-25T22:39:52.960Z,100.00
2022-12-25T22:42:56.315Z,100.00
2022-12-25T22:46:01.868Z,100.00
2022-12-25T22:49:04.671Z,100.00
2022-12-25T22:52:09.754Z,100.00
2022-12-25T22:55:15.495Z,100.00
2022-12-25T22:58:18.354Z,100.00
2022-12-25T23:01:21.210Z,100.00
2022-12-25T23:04:23.921Z,100.00
2022-12-25T23:07:26.580Z,100.00
2022-12-25T23:10:29.019Z,100.00
2022-12-25T23:13:54.796Z,100.00
2022-12-25T23:16:57.420Z,100.00
2022-12-25T23:20:20.633Z,100.00
2022-12-25T23:23:41.485Z,100.00
2022-12-25T23:26:44.539Z,100.00
2022-12-25T23:29:46.888Z,100.00
2022-12-25T23:32:49.521Z,100.00
2022-12-25T23:35:51.959Z,100.00
2022-12-25T23:38:54.631Z,100.00
2022-12-25T23:41:57.349Z,100.00
2022-12-25T23:44:59.961Z,100.00
2022-12-25T23:48:02.335Z,100.00
2022-12-25T23:51:05.608Z,100.00
2022-12-25T23:54:08.621Z,100.00
2022-12-25T23:57:11.252Z,100.00
